Time;durP1;ratioP1;P1;durP2;ratioP2;P2;SDS_P1;SDS_P2;PMS_P1;PMS_P2;Temp;Humidity;BMP_temperature;BMP_pressure;BME280_temperature;BME280_humidity;BME280_pressure;Samples;Min_cycle;Max_cycle;Signal;HPM_P1;HPM_P2
2023/03/27 00:00:28;;;;;;;14.05;1.83;;;2.90;99.90;;;;;;5039417;28;20042;-72
2023/03/27 00:02:53;;;;;;;19.02;2.03;;;2.90;99.90;;;;;;5023004;28;20044;-71
2023/03/27 00:05:20;;;;;;;19.45;2.17;;;2.90;99.90;;;;;;5024649;28;20038;-71
2023/03/27 00:07:47;;;;;;;14.88;2.05;;;2.90;99.90;;;;;;5027715;28;20097;-71
2023/03/27 00:10:13;;;;;;;14.02;2.35;;;2.90;99.90;;;;;;5027968;28;20022;-71
2023/03/27 00:12:39;;;;;;;14.75;1.75;;;2.90;99.90;;;;;;5028439;28;20038;-70
2023/03/27 00:15:06;;;;;;;14.35;1.38;;;2.90;99.90;;;;;;5038767;28;20030;-71
2023/03/27 00:17:32;;;;;;;15.50;2.13;;;2.90;99.90;;;;;;5063227;28;20029;-71
2023/03/27 00:19:58;;;;;;;11.45;1.85;;;2.90;99.90;;;;;;5067765;28;20479;-71
2023/03/27 00:22:23;;;;;;;10.48;1.65;;;2.90;99.90;;;;;;5067620;28;20024;-71
2023/03/27 00:24:49;;;;;;;12.13;1.98;;;2.90;99.90;;;;;;5067653;28;20032;-71
2023/03/27 00:27:18;;;;;;;13.27;1.80;;;2.80;99.90;;;;;;5067482;28;20027;-70
2023/03/27 00:29:45;;;;;;;8.13;1.63;;;2.90;99.90;;;;;;5067519;28;20024;-71
2023/03/27 00:32:10;;;;;;;13.38;1.42;;;2.90;99.90;;;;;;5067393;28;20476;-71
2023/03/27 00:34:36;;;;;;;16.83;2.03;;;2.90;99.90;;;;;;5067540;28;20028;-71
2023/03/27 00:37:04;;;;;;;17.17;2.15;;;2.90;99.90;;;;;;5066160;28;20029;-71
2023/03/27 00:39:30;;;;;;;12.05;1.60;;;2.90;99.90;;;;;;5067385;28;20037;-70
2023/03/27 00:41:55;;;;;;;10.65;1.42;;;2.90;99.90;;;;;;5067417;28;20044;-72
2023/03/27 00:44:33;;;;;;;10.88;2.00;;;2.90;99.90;;;;;;5064844;28;20343;-71
2023/03/27 00:47:01;;;;;;;17.23;1.73;;;2.90;99.90;;;;;;5031941;28;20022;-72
2023/03/27 00:49:31;;;;;;;9.00;1.52;;;2.90;99.90;;;;;;5047155;28;20075;-71
2023/03/27 00:51:58;;;;;;;16.77;1.88;;;2.90;99.90;;;;;;5042640;28;20093;-71
2023/03/27 00:54:28;;;;;;;11.52;1.80;;;2.90;99.90;;;;;;5025757;28;20100;-71
2023/03/27 00:56:58;;;;;;;16.80;2.13;;;2.80;99.90;;;;;;5027108;28;20080;-71
2023/03/27 00:59:30;;;;;;;13.30;1.67;;;2.80;99.90;;;;;;5027119;28;20131;-72
2023/03/27 01:01:57;;;;;;;14.30;1.40;;;2.80;99.90;;;;;;5027372;28;20080;-72
2023/03/27 01:04:23;;;;;;;13.93;1.65;;;2.80;99.90;;;;;;5033482;28;20026;-72
2023/03/27 01:06:51;;;;;;;9.75;1.50;;;2.70;99.90;;;;;;5026704;28;20060;-72
2023/03/27 01:09:17;;;;;;;10.38;1.67;;;2.70;99.90;;;;;;5026885;28;20029;-72
2023/03/27 01:11:53;;;;;;;10.88;1.63;;;2.70;99.90;;;;;;5026869;28;20034;-72
2023/03/27 01:14:36;;;;;;;12.25;2.00;;;2.70;99.90;;;;;;5025704;28;20033;-72
2023/03/27 01:17:20;;;;;;;13.63;1.60;;;2.70;99.90;;;;;;5026346;28;20034;-72
2023/03/27 01:20:31;;;;;;;11.77;1.50;;;2.70;99.90;;;;;;5025198;28;20038;-72
2023/03/27 01:22:57;;;;;;;10.05;1.35;;;2.80;99.90;;;;;;5026800;28;20026;-71
2023/03/27 01:25:57;;;;;;;10.00;1.48;;;2.80;99.90;;;;;;5026595;28;20030;-71
2023/03/27 01:28:50;;;;;;;12.55;1.65;;;2.80;99.90;;;;;;5013775;28;20029;-72
2023/03/27 01:31:36;;;;;;;6.53;1.50;;;2.80;99.90;;;;;;5026567;28;20026;-72
2023/03/27 01:34:24;;;;;;;15.77;1.52;;;2.80;99.90;;;;;;5025186;28;20030;-72
2023/03/27 01:37:15;;;;;;;11.35;1.35;;;2.80;99.90;;;;;;5026356;28;20223;-71
2023/03/27 01:39:51;;;;;;;9.15;1.77;;;2.80;99.90;;;;;;5026298;28;20038;-73
2023/03/27 01:42:23;;;;;;;13.43;1.83;;;2.80;99.90;;;;;;5026539;28;20383;-71
2023/03/27 01:44:52;;;;;;;8.45;1.98;;;2.80;99.90;;;;;;5041588;28;20075;-72
2023/03/27 01:47:31;;;;;;;17.00;2.03;;;2.80;99.90;;;;;;5041146;28;20034;-71
2023/03/27 01:50:14;;;;;;;12.25;1.60;;;2.80;99.90;;;;;;5034644;28;20081;-72
2023/03/27 01:52:44;;;;;;;6.10;1.13;;;2.80;99.90;;;;;;5045022;28;20033;-72
2023/03/27 01:55:17;;;;;;;11.82;1.25;;;2.80;99.90;;;;;;5043020;28;20029;-72
2023/03/27 01:57:52;;;;;;;8.20;1.93;;;2.80;99.90;;;;;;5045798;28;20021;-72
2023/03/27 02:00:21;;;;;;;11.30;1.80;;;2.90;99.90;;;;;;5045751;28;20113;-71
2023/03/27 02:02:58;;;;;;;14.48;1.60;;;3.00;99.90;;;;;;5045738;28;20037;-71
2023/03/27 02:05:55;;;;;;;10.00;1.52;;;3.00;99.90;;;;;;5044305;28;20056;-71
2023/03/27 02:08:29;;;;;;;12.45;1.95;;;3.00;99.90;;;;;;5044829;28;20059;-71
2023/03/27 02:10:58;;;;;;;16.20;1.85;;;3.10;99.90;;;;;;5045578;28;20340;-70
2023/03/27 02:13:47;;;;;;;17.27;2.22;;;3.00;99.90;;;;;;5045558;28;20044;-71
2023/03/27 02:16:18;;;;;;;13.35;2.28;;;3.10;99.90;;;;;;5045299;28;20112;-71
2023/03/27 02:18:53;;;;;;;14.70;2.25;;;3.10;99.90;;;;;;5045377;28;20021;-72
2023/03/27 02:21:18;;;;;;;18.40;2.08;;;3.10;99.90;;;;;;5045417;28;20076;-71
2023/03/27 02:23:44;;;;;;;10.63;1.80;;;3.10;99.90;;;;;;5043925;28;20390;-71
2023/03/27 02:26:11;;;;;;;9.38;1.92;;;3.10;99.90;;;;;;5045314;28;20411;-71
2023/03/27 02:28:44;;;;;;;15.75;2.00;;;3.10;99.90;;;;;;5045103;28;20022;-72
2023/03/27 02:31:18;;;;;;;17.02;1.63;;;3.10;99.90;;;;;;5045290;28;20386;-71
2023/03/27 02:34:19;;;;;;;11.32;1.92;;;3.00;99.90;;;;;;5045103;28;20390;-71
2023/03/27 02:36:53;;;;;;;9.00;1.70;;;3.00;99.90;;;;;;5045101;28;20033;-71
2023/03/27 02:39:37;;;;;;;10.45;1.80;;;3.10;99.90;;;;;;5044876;28;20037;-71
2023/03/27 02:42:19;;;;;;;8.35;1.58;;;3.10;99.90;;;;;;5045137;28;20041;-71
2023/03/27 02:44:55;;;;;;;13.40;1.98;;;3.10;99.90;;;;;;5045074;28;20056;-71
2023/03/27 02:47:27;;;;;;;12.98;1.92;;;3.10;99.90;;;;;;5044983;28;20544;-71
2023/03/27 02:50:00;;;;;;;7.38;1.33;;;3.00;99.90;;;;;;5045027;28;20405;-71
2023/03/27 02:52:31;;;;;;;7.57;1.73;;;3.00;99.90;;;;;;5045134;28;20029;-71
2023/03/27 02:55:21;;;;;;;10.13;1.80;;;3.00;99.90;;;;;;5045038;28;20053;-71
2023/03/27 02:57:58;;;;;;;7.90;1.50;;;2.90;99.90;;;;;;5041200;28;20095;-70
2023/03/27 03:00:31;;;;;;;11.65;1.50;;;2.90;99.90;;;;;;5044911;28;20037;-71
2023/03/27 03:03:13;;;;;;;4.93;1.20;;;2.90;99.90;;;;;;5045052;28;20026;-71
2023/03/27 03:05:39;;;;;;;8.05;1.50;;;2.80;99.90;;;;;;5044724;28;20025;-72
2023/03/27 03:08:08;;;;;;;13.48;1.45;;;2.70;99.90;;;;;;5044308;28;20056;-71
2023/03/27 03:10:35;;;;;;;11.55;1.63;;;2.70;99.90;;;;;;5044691;28;20052;-72
2023/03/27 03:13:02;;;;;;;6.88;1.33;;;2.60;99.90;;;;;;5044750;28;20021;-71
2023/03/27 03:15:28;;;;;;;10.82;2.20;;;2.60;99.90;;;;;;5044669;28;20022;-71
2023/03/27 03:17:54;;;;;;;11.02;1.40;;;2.50;99.90;;;;;;5044602;28;20056;-71
2023/03/27 03:20:20;;;;;;;6.65;1.83;;;2.40;99.90;;;;;;5044547;28;20075;-70
2023/03/27 03:22:45;;;;;;;7.32;1.58;;;2.40;99.90;;;;;;5043091;28;20045;-71
2023/03/27 03:25:11;;;;;;;11.15;1.85;;;2.40;99.90;;;;;;5044474;28;20033;-71
2023/03/27 03:27:37;;;;;;;11.93;1.65;;;2.40;99.90;;;;;;5044392;28;20032;-71
2023/03/27 03:30:04;;;;;;;7.53;1.88;;;2.30;99.90;;;;;;5044799;28;20021;-72
2023/03/27 03:32:29;;;;;;;11.00;1.58;;;2.30;99.90;;;;;;5043391;28;20029;-71
2023/03/27 03:34:56;;;;;;;8.65;1.85;;;2.20;99.90;;;;;;5044490;28;20029;-71
2023/03/27 03:37:27;;;;;;;11.73;2.10;;;2.20;99.90;;;;;;5043053;28;20025;-71
2023/03/27 03:39:54;;;;;;;12.00;2.13;;;2.20;99.90;;;;;;5044383;28;20041;-71
2023/03/27 03:42:20;;;;;;;5.50;1.30;;;2.20;99.90;;;;;;5047856;28;20025;-71
2023/03/27 03:44:45;;;;;;;4.65;1.30;;;2.10;99.90;;;;;;5048421;28;20029;-70
2023/03/27 03:47:11;;;;;;;7.32;1.65;;;2.10;99.90;;;;;;5048316;28;20036;-70
2023/03/27 03:49:36;;;;;;;13.15;1.95;;;2.10;99.90;;;;;;5048355;28;20479;-71
2023/03/27 03:52:02;;;;;;;5.30;1.48;;;2.10;99.90;;;;;;5048144;28;20025;-71
2023/03/27 03:54:27;;;;;;;7.00;1.65;;;2.10;99.90;;;;;;5048158;28;20065;-70
2023/03/27 03:56:53;;;;;;;5.72;1.75;;;2.10;99.90;;;;;;5046806;28;20040;-71
2023/03/27 03:59:20;;;;;;;7.13;1.67;;;2.10;99.90;;;;;;5047787;28;20131;-72
2023/03/27 04:01:45;;;;;;;9.68;1.77;;;2.20;99.90;;;;;;5048214;28;20113;-72
2023/03/27 04:04:11;;;;;;;9.02;2.03;;;2.10;99.90;;;;;;5047311;28;20026;-71
2023/03/27 04:06:36;;;;;;;6.97;1.90;;;2.10;99.90;;;;;;5033519;28;20037;-71
2023/03/27 04:09:05;;;;;;;8.63;1.75;;;2.10;99.90;;;;;;5033358;28;20032;-71
2023/03/27 04:11:32;;;;;;;8.13;1.95;;;2.00;99.90;;;;;;5047196;28;20038;-70
2023/03/27 04:13:58;;;;;;;7.57;1.73;;;2.10;99.90;;;;;;5041214;28;20038;-69
2023/03/27 04:16:24;;;;;;;8.65;1.70;;;2.10;99.90;;;;;;5036909;28;20402;-70
2023/03/27 04:18:53;;;;;;;15.48;1.75;;;2.00;99.90;;;;;;5047479;28;20030;-69
2023/03/27 04:21:19;;;;;;;11.00;2.30;;;2.10;99.90;;;;;;5046395;28;20029;-70
2023/03/27 04:23:47;;;;;;;10.48;2.33;;;2.10;99.90;;;;;;5038611;28;20022;-70
2023/03/27 04:26:14;;;;;;;14.38;2.30;;;2.10;99.90;;;;;;5026441;28;20030;-69
2023/03/27 04:28:40;;;;;;;14.55;2.70;;;2.10;99.90;;;;;;5043654;28;20028;-71
2023/03/27 04:31:09;;;;;;;13.02;3.17;;;2.10;99.90;;;;;;5027750;28;20026;-70
2023/03/27 04:33:45;;;;;;;9.10;2.45;;;2.10;99.90;;;;;;5042934;28;20026;-69
2023/03/27 04:36:15;;;;;;;12.05;2.78;;;2.10;99.90;;;;;;5040714;28;20041;-69
2023/03/27 04:38:40;;;;;;;21.40;2.75;;;2.00;99.90;;;;;;5047155;28;20085;-71
2023/03/27 04:41:07;;;;;;;11.38;2.28;;;2.00;99.90;;;;;;5047450;28;20037;-70
2023/03/27 04:43:38;;;;;;;12.40;2.47;;;2.00;99.90;;;;;;5047385;28;20490;-71
2023/03/27 04:46:05;;;;;;;9.20;2.40;;;2.00;99.90;;;;;;5047038;28;20085;-69
2023/03/27 04:48:31;;;;;;;15.63;2.78;;;2.00;99.90;;;;;;5046034;28;20030;-70
2023/03/27 04:50:57;;;;;;;8.98;2.25;;;2.00;99.90;;;;;;5047059;28;20049;-70
2023/03/27 04:53:22;;;;;;;10.77;2.20;;;2.00;99.90;;;;;;5043155;28;20045;-72
2023/03/27 04:55:51;;;;;;;10.07;2.45;;;2.00;99.90;;;;;;5025733;28;20040;-71
2023/03/27 04:58:17;;;;;;;14.00;2.28;;;1.90;99.90;;;;;;5027200;28;20071;-70
2023/03/27 05:00:49;;;;;;;16.65;3.10;;;1.90;99.90;;;;;;5026974;28;20034;-71
2023/03/27 05:03:17;;;;;;;16.48;3.13;;;1.80;99.90;;;;;;5027194;28;20022;-72
2023/03/27 05:05:45;;;;;;;15.45;2.80;;;1.80;99.90;;;;;;5027011;28;20026;-70
2023/03/27 05:08:11;;;;;;;13.25;3.08;;;1.70;99.90;;;;;;5026738;28;20081;-69
2023/03/27 05:10:37;;;;;;;17.67;2.58;;;1.70;99.90;;;;;;5025638;28;20030;-71
2023/03/27 05:13:03;;;;;;;10.93;2.50;;;1.70;99.90;;;;;;5026950;28;20029;-72
2023/03/27 05:15:31;;;;;;;7.63;2.17;;;1.70;99.90;;;;;;5026955;28;20069;-70
2023/03/27 05:17:57;;;;;;;10.15;2.40;;;1.70;99.90;;;;;;5026875;28;20471;-71
2023/03/27 05:20:23;;;;;;;13.55;2.35;;;1.70;99.90;;;;;;5026742;28;20038;-69
2023/03/27 05:22:51;;;;;;;7.40;2.22;;;1.80;99.90;;;;;;5037431;28;20039;-69
2023/03/27 05:25:17;;;;;;;13.32;2.00;;;1.80;99.90;;;;;;5041552;28;20021;-69
2023/03/27 05:27:47;;;;;;;15.13;2.78;;;1.80;99.90;;;;;;5028489;28;20091;-70
2023/03/27 05:30:15;;;;;;;19.08;2.90;;;1.80;99.90;;;;;;5031683;28;20026;-69
2023/03/27 05:32:47;;;;;;;21.65;2.97;;;1.80;99.90;;;;;;5039965;28;20032;-70
2023/03/27 05:35:12;;;;;;;16.60;2.17;;;1.80;99.90;;;;;;5035772;28;20017;-69
2023/03/27 05:37:38;;;;;;;13.18;2.67;;;1.80;99.90;;;;;;5036258;28;20029;-70
2023/03/27 05:40:04;;;;;;;12.35;2.92;;;1.80;99.90;;;;;;5026160;28;20042;-70
2023/03/27 05:42:30;;;;;;;15.40;3.10;;;1.80;99.90;;;;;;5026526;28;20168;-69
2023/03/27 05:44:55;;;;;;;7.45;2.35;;;1.80;99.90;;;;;;5043537;28;20737;-69
2023/03/27 05:47:21;;;;;;;10.55;2.15;;;1.80;99.90;;;;;;5046005;28;20036;-70
2023/03/27 05:49:47;;;;;;;10.13;2.35;;;1.80;99.90;;;;;;5046022;28;20044;-69
2023/03/27 05:52:13;;;;;;;15.30;2.33;;;1.80;99.90;;;;;;5045853;28;20053;-70
2023/03/27 05:54:38;;;;;;;7.47;2.28;;;1.80;99.90;;;;;;5045968;28;20022;-70
2023/03/27 05:57:04;;;;;;;13.02;2.70;;;1.80;99.90;;;;;;5045897;28;20026;-70
2023/03/27 05:59:29;;;;;;;10.80;3.08;;;1.80;99.90;;;;;;5045878;28;20045;-69
2023/03/27 06:01:57;;;;;;;8.98;2.17;;;1.80;99.90;;;;;;5040406;28;20025;-69
2023/03/27 06:04:22;;;;;;;11.05;2.63;;;1.80;99.90;;;;;;5034356;28;20052;-71
2023/03/27 06:06:48;;;;;;;17.35;2.30;;;1.80;99.90;;;;;;5025661;28;20042;-69
2023/03/27 06:09:14;;;;;;;16.60;2.40;;;1.80;99.90;;;;;;5027198;28;20029;-69
2023/03/27 06:11:39;;;;;;;9.60;2.15;;;1.80;99.90;;;;;;5038342;28;20022;-69
2023/03/27 06:14:05;;;;;;;13.77;2.58;;;1.80;99.90;;;;;;5031785;28;20057;-70
2023/03/27 06:16:31;;;;;;;8.73;2.83;;;1.80;99.90;;;;;;5026083;28;20068;-70
2023/03/27 06:18:57;;;;;;;12.13;2.95;;;1.80;99.90;;;;;;5040856;28;20040;-69
2023/03/27 06:21:23;;;;;;;12.18;2.83;;;1.80;99.90;;;;;;5043174;28;20021;-68
2023/03/27 06:23:49;;;;;;;17.17;2.67;;;1.80;99.90;;;;;;5034964;28;20029;-69
2023/03/27 06:26:15;;;;;;;12.80;2.92;;;1.80;99.90;;;;;;5044587;28;20021;-69
2023/03/27 06:28:40;;;;;;;11.07;2.38;;;1.80;99.90;;;;;;5043466;28;20057;-69
2023/03/27 06:31:07;;;;;;;9.20;2.20;;;1.80;99.90;;;;;;5044547;28;20025;-70
2023/03/27 06:33:33;;;;;;;15.40;2.30;;;1.90;99.90;;;;;;5042156;28;20025;-70
2023/03/27 06:36:00;;;;;;;13.13;2.88;;;1.90;99.90;;;;;;5034314;28;20532;-69
2023/03/27 06:38:28;;;;;;;12.93;2.30;;;1.80;99.90;;;;;;5030253;28;20045;-70
2023/03/27 06:40:54;;;;;;;11.05;2.88;;;1.80;99.90;;;;;;5025095;28;20042;-70
2023/03/27 06:43:21;;;;;;;10.02;2.40;;;1.90;99.90;;;;;;5025272;28;20072;-69
2023/03/27 06:45:48;;;;;;;12.98;2.35;;;1.90;99.90;;;;;;5025294;28;20112;-71
2023/03/27 06:48:16;;;;;;;14.98;2.85;;;2.00;99.90;;;;;;5023967;28;20137;-70
2023/03/27 06:50:42;;;;;;;11.88;2.90;;;2.10;99.90;;;;;;5032691;28;20030;-70
2023/03/27 06:53:09;;;;;;;17.70;2.80;;;2.10;99.90;;;;;;5035424;28;20041;-70
2023/03/27 06:55:36;;;;;;;15.57;3.22;;;2.20;99.90;;;;;;5042299;28;20040;-72
2023/03/27 06:58:02;;;;;;;10.65;3.03;;;2.20;99.90;;;;;;5041053;28;20034;-68
2023/03/27 07:00:34;;;;;;;11.10;3.47;;;2.30;99.90;;;;;;5042917;28;20131;-70
2023/03/27 07:03:07;;;;;;;13.35;3.15;;;2.40;99.90;;;;;;5035977;28;20026;-70
2023/03/27 07:05:35;;;;;;;13.50;3.00;;;2.40;99.90;;;;;;5042723;28;20057;-69
2023/03/27 07:08:02;;;;;;;8.77;2.38;;;2.50;99.90;;;;;;5043460;28;20104;-71
2023/03/27 07:10:28;;;;;;;14.82;2.90;;;2.50;99.90;;;;;;5037619;28;20026;-69
2023/03/27 07:12:54;;;;;;;11.70;2.30;;;2.60;99.90;;;;;;5043736;28;20052;-69
2023/03/27 07:15:20;;;;;;;8.10;2.10;;;2.80;99.90;;;;;;5043834;28;20089;-70
2023/03/27 07:17:59;;;;;;;12.40;2.63;;;2.80;99.90;;;;;;5024788;28;20360;-69
2023/03/27 07:20:27;;;;;;;9.40;2.20;;;2.90;99.90;;;;;;5031012;28;20045;-69
2023/03/27 07:22:57;;;;;;;12.43;1.95;;;2.80;99.90;;;;;;5039359;28;20078;-69
2023/03/27 07:25:28;;;;;;;14.65;2.03;;;2.80;99.90;;;;;;5042836;28;20033;-69
2023/03/27 07:28:00;;;;;;;12.38;1.75;;;2.80;99.90;;;;;;5043455;28;20041;-69
2023/03/27 07:30:27;;;;;;;14.65;2.40;;;2.80;99.90;;;;;;5044557;28;20104;-69
2023/03/27 07:32:53;;;;;;;5.85;2.00;;;2.90;99.90;;;;;;5038246;28;20055;-69
2023/03/27 07:35:19;;;;;;;10.00;2.00;;;3.00;99.90;;;;;;5032929;28;20076;-68
2023/03/27 07:37:45;;;;;;;6.80;2.42;;;3.30;99.90;;;;;;5035548;28;20033;-69
2023/03/27 07:40:14;;;;;;;5.78;1.73;;;3.50;99.90;;;;;;5026478;28;20045;-70
2023/03/27 07:42:44;;;;;;;7.80;1.88;;;3.60;99.90;;;;;;5034078;28;20026;-70
2023/03/27 07:45:11;;;;;;;9.80;2.88;;;3.70;99.90;;;;;;5033522;28;20037;-70
2023/03/27 07:47:38;;;;;;;11.18;1.92;;;3.80;99.90;;;;;;5030583;28;20033;-70
2023/03/27 07:50:04;;;;;;;6.53;1.90;;;3.70;99.90;;;;;;5036973;28;20022;-70
2023/03/27 07:52:33;;;;;;;6.45;1.95;;;3.70;99.90;;;;;;5042985;28;20025;-69
2023/03/27 07:54:59;;;;;;;8.80;2.00;;;3.50;99.90;;;;;;5040211;28;20030;-70
2023/03/27 07:57:25;;;;;;;8.10;2.50;;;3.50;99.90;;;;;;5039271;28;20026;-70
2023/03/27 07:59:51;;;;;;;9.50;2.55;;;3.50;99.90;;;;;;5024214;28;20041;-70
2023/03/27 08:02:17;;;;;;;11.85;2.53;;;3.70;99.90;;;;;;5033457;28;20052;-70
2023/03/27 08:04:42;;;;;;;10.48;2.15;;;3.80;99.90;;;;;;5036135;28;20772;-70
2023/03/27 08:07:08;;;;;;;12.07;1.92;;;4.00;99.90;;;;;;5030087;28;20065;-70
2023/03/27 08:09:34;;;;;;;11.73;1.83;;;4.20;99.90;;;;;;5034961;28;20064;-70
2023/03/27 08:12:00;;;;;;;7.53;1.80;;;4.30;99.90;;;;;;5030423;28;20033;-71
2023/03/27 08:14:26;;;;;;;6.53;1.65;;;4.50;99.90;;;;;;5035891;28;20037;-71
2023/03/27 08:16:52;;;;;;;13.98;1.58;;;4.70;99.90;;;;;;5038445;28;20025;-70
2023/03/27 08:19:17;;;;;;;5.82;1.40;;;4.90;99.90;;;;;;5042469;28;20068;-71
2023/03/27 08:21:43;;;;;;;6.18;1.17;;;5.10;99.90;;;;;;5037674;28;20069;-71
2023/03/27 08:24:09;;;;;;;7.88;1.25;;;5.20;99.90;;;;;;5033975;28;20025;-70
2023/03/27 08:26:35;;;;;;;12.77;1.55;;;5.30;99.90;;;;;;5040933;28;20029;-72
2023/03/27 08:29:00;;;;;;;6.93;1.45;;;5.30;99.90;;;;;;5045580;28;20026;-69
2023/03/27 08:31:29;;;;;;;5.75;1.30;;;5.20;99.90;;;;;;5047186;28;20127;-69
2023/03/27 08:33:55;;;;;;;8.45;1.25;;;5.10;99.90;;;;;;5047162;28;20032;-69
2023/03/27 08:36:20;;;;;;;6.32;1.30;;;4.70;99.90;;;;;;5047535;28;20065;-69
2023/03/27 08:38:46;;;;;;;6.03;1.38;;;4.20;99.90;;;;;;5044082;28;20025;-69
2023/03/27 08:41:37;;;;;;;6.53;1.30;;;4.00;99.90;;;;;;5045651;28;20068;-69
2023/03/27 08:44:08;;;;;;;7.32;1.65;;;3.80;99.90;;;;;;5040644;28;20030;-70
2023/03/27 08:46:49;;;;;;;10.48;1.50;;;3.80;99.90;;;;;;5035650;28;20040;-69
2023/03/27 08:49:24;;;;;;;10.02;1.83;;;3.90;99.90;;;;;;5046815;28;20026;-70
2023/03/27 08:51:57;;;;;;;11.65;2.08;;;4.00;99.90;;;;;;5045832;28;20037;-69
2023/03/27 08:54:32;;;;;;;9.50;1.75;;;4.30;99.90;;;;;;5046917;28;20025;-69
2023/03/27 08:56:58;;;;;;;13.23;2.47;;;4.40;99.90;;;;;;5047178;28;20034;-70
2023/03/27 08:59:28;;;;;;;8.50;1.77;;;4.40;99.90;;;;;;5046877;28;20038;-69
2023/03/27 09:02:08;;;;;;;13.48;1.88;;;4.40;99.90;;;;;;5046886;28;20029;-70
2023/03/27 09:04:52;;;;;;;12.05;2.10;;;4.40;99.90;;;;;;5046793;28;20033;-72
2023/03/27 09:07:36;;;;;;;12.55;1.85;;;4.60;99.90;;;;;;5046563;28;20079;-70
2023/03/27 09:10:14;;;;;;;8.63;1.63;;;4.80;99.90;;;;;;5047039;28;20029;-70
2023/03/27 09:13:07;;;;;;;8.65;1.05;;;5.20;99.90;;;;;;5038965;28;20029;-73
2023/03/27 09:16:01;;;;;;;15.05;1.42;;;5.40;99.90;;;;;;5046559;28;20049;-71
2023/03/27 09:18:51;;;;;;;13.27;2.63;;;5.50;99.90;;;;;;5031164;28;20034;-71
2023/03/27 09:21:22;;;;;;;16.02;2.10;;;5.60;99.90;;;;;;5026708;28;20059;-71
2023/03/27 09:23:48;;;;;;;6.63;1.67;;;5.80;99.90;;;;;;5029582;28;20025;-72
2023/03/27 09:26:21;;;;;;;7.97;1.30;;;5.90;99.90;;;;;;5042891;28;20033;-70
2023/03/27 09:28:50;;;;;;;5.43;1.40;;;6.20;99.90;;;;;;5045624;28;20021;-71
2023/03/27 09:31:31;;;;;;;9.65;1.45;;;6.30;99.90;;;;;;5030906;28;20021;-71
2023/03/27 09:34:01;;;;;;;10.55;1.33;;;6.30;99.90;;;;;;5040626;28;20541;-69
2023/03/27 09:36:29;;;;;;;6.45;1.42;;;6.40;99.90;;;;;;5036297;28;20449;-71
2023/03/27 09:39:01;;;;;;;4.72;1.33;;;6.70;99.90;;;;;;5043029;28;20032;-70
2023/03/27 09:41:52;;;;;;;5.63;1.27;;;6.90;99.90;;;;;;5039426;28;20029;-73
2023/03/27 09:44:27;;;;;;;8.68;1.35;;;7.00;99.90;;;;;;5043055;28;20037;-71
2023/03/27 09:47:16;;;;;;;16.23;1.70;;;6.60;99.90;;;;;;5045814;28;20025;-72
2023/03/27 09:49:49;;;;;;;9.20;1.50;;;6.20;99.90;;;;;;5037113;28;20026;-70
2023/03/27 09:52:35;;;;;;;9.02;1.30;;;6.20;99.90;;;;;;5030680;28;20036;-71
2023/03/27 09:55:01;;;;;;;8.60;1.25;;;6.60;99.90;;;;;;5036296;28;20030;-70
2023/03/27 09:57:32;;;;;;;9.48;1.58;;;6.70;99.90;;;;;;5038666;28;20084;-70
2023/03/27 10:00:13;;;;;;;14.15;1.50;;;7.00;99.90;;;;;;5030971;28;20034;-71
2023/03/27 10:02:39;;;;;;;11.25;1.33;;;7.40;99.90;;;;;;5034655;28;20506;-71
2023/03/27 10:05:10;;;;;;;5.45;0.85;;;7.70;99.90;;;;;;5035861;28;20061;-70
2023/03/27 10:07:38;;;;;;;10.52;1.00;;;7.60;99.90;;;;;;5032987;28;20054;-70
2023/03/27 10:10:16;;;;;;;10.00;1.10;;;7.80;99.90;;;;;;5035934;28;20045;-71
2023/03/27 10:12:43;;;;;;;7.57;1.15;;;8.10;99.90;;;;;;5028067;28;20048;-72
2023/03/27 10:15:31;;;;;;;4.15;0.80;;;8.30;99.90;;;;;;5033727;28;20109;-71
2023/03/27 10:17:57;;;;;;;8.13;1.00;;;8.20;99.90;;;;;;5035946;28;20021;-72
2023/03/27 10:20:24;;;;;;;8.18;1.08;;;8.30;99.90;;;;;;5029990;28;20084;-71
2023/03/27 10:22:52;;;;;;;9.38;1.20;;;8.50;99.90;;;;;;5036312;28;20025;-70
2023/03/27 10:25:20;;;;;;;3.72;1.00;;;8.30;99.90;;;;;;5039483;28;20062;-70
2023/03/27 10:27:46;;;;;;;12.57;1.15;;;8.10;99.90;;;;;;5044902;28;20029;-70
2023/03/27 10:30:33;;;;;;;7.07;0.85;;;8.00;99.90;;;;;;5045184;28;20025;-70
2023/03/27 10:32:59;;;;;;;7.55;1.15;;;7.80;99.90;;;;;;5032161;28;20470;-69
2023/03/27 10:35:29;;;;;;;6.88;0.80;;;7.90;99.90;;;;;;5045115;28;20052;-70
2023/03/27 10:37:56;;;;;;;5.53;0.75;;;8.20;99.90;;;;;;5042771;28;20030;-70
2023/03/27 10:40:29;;;;;;;7.20;0.98;;;8.60;99.90;;;;;;5035764;28;20114;-71
2023/03/27 10:43:01;;;;;;;6.47;0.90;;;8.80;99.90;;;;;;5040307;28;20045;-73
2023/03/27 10:45:27;;;;;;;7.63;1.10;;;8.50;99.90;;;;;;5044798;28;20033;-69
2023/03/27 10:47:57;;;;;;;5.90;0.80;;;8.00;99.90;;;;;;5033505;28;20030;-71
2023/03/27 10:50:39;;;;;;;6.22;1.13;;;7.40;99.90;;;;;;5024384;28;20026;-69
2023/03/27 10:53:31;;;;;;;5.88;0.75;;;7.10;99.90;;;;;;5025480;28;20026;-72
2023/03/27 10:56:18;;;;;;;4.57;0.85;;;6.70;99.90;;;;;;5025250;28;20068;-72
2023/03/27 10:59:00;;;;;;;5.47;0.90;;;6.60;99.90;;;;;;5024963;28;20087;-68
2023/03/27 11:01:40;;;;;;;5.63;0.70;;;6.80;99.90;;;;;;5027719;28;20124;-72
2023/03/27 11:04:09;;;;;;;2.63;0.60;;;7.20;99.90;;;;;;5044977;28;20097;-70
2023/03/27 11:06:39;;;;;;;5.38;1.25;;;7.20;99.90;;;;;;5035200;28;20041;-69
2023/03/27 11:09:14;;;;;;;9.88;1.10;;;6.70;99.90;;;;;;5038354;28;20029;-71
2023/03/27 11:11:50;;;;;;;8.48;0.90;;;6.10;99.90;;;;;;5031884;28;20048;-72
2023/03/27 11:14:57;;;;;;;6.53;1.27;;;5.70;99.90;;;;;;5042466;28;20089;-70
2023/03/27 11:17:30;;;;;;;4.43;0.60;;;5.80;99.90;;;;;;5048026;28;20036;-70
2023/03/27 11:20:07;;;;;;;6.32;1.10;;;6.30;99.90;;;;;;5046267;28;20044;-69
2023/03/27 11:22:38;;;;;;;7.53;1.13;;;6.70;99.90;;;;;;5042689;28;20029;-73
2023/03/27 11:25:22;;;;;;;11.68;1.45;;;7.20;99.90;;;;;;5043850;28;20040;-69
2023/03/27 11:28:09;;;;;;;8.88;1.60;;;7.60;99.90;;;;;;5042434;28;20379;-71
2023/03/27 11:30:43;;;;;;;8.10;1.20;;;8.10;99.90;;;;;;5043762;28;20077;-73
2023/03/27 11:33:25;;;;;;;3.60;0.98;;;8.30;99.90;;;;;;5042450;28;20037;-70
2023/03/27 11:36:04;;;;;;;6.50;1.13;;;8.40;99.90;;;;;;5042440;28;20038;-71
2023/03/27 11:38:36;;;;;;;7.57;1.02;;;8.70;99.90;;;;;;5039992;28;20026;-69
2023/03/27 11:41:01;;;;;;;8.73;1.30;;;8.90;99.90;;;;;;5029617;28;20083;-72
2023/03/27 11:43:27;;;;;;;8.77;0.80;;;8.80;99.90;;;;;;5061391;28;20036;-73
2023/03/27 11:46:18;;;;;;;5.50;0.77;;;8.30;99.90;;;;;;5040995;28;20041;-71
2023/03/27 11:49:07;;;;;;;9.40;0.73;;;7.50;99.90;;;;;;5043479;28;20488;-73
2023/03/27 11:51:40;;;;;;;4.22;0.60;;;6.60;99.90;;;;;;5041734;28;20053;-71
2023/03/27 11:54:18;;;;;;;4.10;0.50;;;6.10;99.90;;;;;;5043622;28;20068;-72
2023/03/27 11:56:46;;;;;;;1.67;0.70;;;5.80;99.90;;;;;;5041610;28;20034;-71
2023/03/27 11:59:29;;;;;;;2.90;0.60;;;5.80;99.90;;;;;;5041910;28;20045;-72
2023/03/27 12:02:16;;;;;;;3.83;0.90;;;6.30;99.90;;;;;;5035745;28;20048;-70
2023/03/27 12:05:10;;;;;;;2.38;0.70;;;6.70;99.90;;;;;;5032921;28;20217;-70
2023/03/27 12:07:45;;;;;;;5.43;1.15;;;7.30;99.90;;;;;;5030407;28;20050;-73
2023/03/27 12:10:25;;;;;;;6.28;0.95;;;7.80;99.90;;;;;;5036009;28;20029;-70
2023/03/27 12:13:16;;;;;;;6.20;0.90;;;8.10;99.90;;;;;;5047583;28;20216;-70
2023/03/27 12:16:05;;;;;;;7.93;0.90;;;8.50;99.90;;;;;;5038811;28;20042;-71
2023/03/27 12:18:56;;;;;;;6.07;1.05;;;8.70;99.90;;;;;;5037547;28;20076;-70
2023/03/27 12:21:32;;;;;;;4.32;1.50;;;8.70;99.90;;;;;;5040852;28;20038;-70
2023/03/27 12:24:38;;;;;;;6.90;1.02;;;9.00;99.90;;;;;;5046985;28;20026;-73
2023/03/27 12:27:22;;;;;;;2.35;0.82;;;9.30;99.90;;;;;;5046910;28;20521;-72
2023/03/27 12:30:25;;;;;;;4.78;1.00;;;8.90;99.90;;;;;;5027115;28;20113;-73
2023/03/27 12:33:24;;;;;;;5.60;0.93;;;8.90;99.90;;;;;;5026907;28;20315;-70
2023/03/27 12:35:55;;;;;;;6.82;0.90;;;9.00;99.90;;;;;;5026953;28;20053;-70
2023/03/27 12:38:34;;;;;;;5.90;0.80;;;9.30;99.90;;;;;;5025344;28;20041;-69
2023/03/27 12:41:12;;;;;;;8.38;1.17;;;9.60;99.90;;;;;;5026526;28;20038;-69
2023/03/27 12:43:43;;;;;;;4.80;0.77;;;10.10;99.90;;;;;;5025622;28;20034;-73
2023/03/27 12:46:15;;;;;;;7.43;1.30;;;10.10;99.90;;;;;;5026604;28;20372;-74
2023/03/27 12:48:58;;;;;;;6.90;1.08;;;9.70;99.90;;;;;;5025377;28;20478;-71
2023/03/27 12:51:42;;;;;;;3.33;0.68;;;9.00;99.90;;;;;;5026413;28;20496;-68
2023/03/27 12:54:25;;;;;;;5.32;0.63;;;7.70;99.90;;;;;;5035713;28;20101;-71
2023/03/27 12:57:12;;;;;;;6.80;1.40;;;6.80;99.90;;;;;;5046169;28;20496;-71
2023/03/27 12:59:47;;;;;;;5.80;0.85;;;6.40;99.90;;;;;;5046153;28;20037;-70
2023/03/27 13:02:41;;;;;;;4.28;0.95;;;6.30;99.90;;;;;;5043956;28;20034;-70
2023/03/27 13:05:26;;;;;;;5.57;1.40;;;6.20;99.90;;;;;;5038542;28;20037;-72
2023/03/27 13:08:17;;;;;;;7.03;0.90;;;6.40;99.90;;;;;;5035871;28;20105;-70
2023/03/27 13:11:02;;;;;;;5.45;0.90;;;7.10;99.90;;;;;;5042596;28;20041;-70
2023/03/27 13:13:53;;;;;;;8.38;1.20;;;8.00;99.90;;;;;;5042809;28;20422;-70
2023/03/27 13:16:38;;;;;;;6.03;1.13;;;8.70;99.90;;;;;;5043849;28;20030;-73
2023/03/27 13:19:18;;;;;;;7.90;1.25;;;9.10;99.90;;;;;;5045969;28;20486;-72